createdAt,value
2022-10-15T00:22:40.893Z,17.30
2022-10-15T00:25:42.696Z,16.80
2022-10-15T01:17:15.228Z,16.70
2022-10-15T01:47:21.579Z,16.80
2022-10-15T02:01:50.208Z,16.80
2022-10-15T02:04:26.854Z,17.40
2022-10-15T02:07:04.506Z,16.40
2022-10-15T02:10:10.828Z,17.20
2022-10-15T02:13:18.876Z,16.80
2022-10-15T02:16:23.580Z,16.80
2022-10-15T02:19:42.248Z,17.10
2022-10-15T02:22:17.810Z,16.80
2022-10-15T02:24:59.272Z,16.80
2022-10-15T02:27:29.459Z,17.30
2022-10-15T02:29:58.597Z,17.50
2022-10-15T02:32:27.167Z,16.80
2022-10-15T02:34:55.106Z,17.30
2022-10-15T02:37:28.043Z,16.80
2022-10-15T02:39:57.734Z,16.20
2022-10-15T02:42:25.569Z,17.40
2022-10-15T02:44:53.370Z,16.80
2022-10-15T02:47:20.347Z,16.80
2022-10-15T02:49:47.271Z,16.80
2022-10-15T02:52:14.136Z,17.40
2022-10-15T02:54:41.014Z,17.30
2022-10-15T02:57:07.913Z,17.30
2022-10-15T02:59:34.841Z,17.40
2022-10-15T03:02:02.131Z,17.40
2022-10-15T03:04:29.138Z,16.90
2022-10-15T03:06:56.026Z,16.80
2022-10-15T03:09:23.055Z,17.40
2022-10-15T03:11:52.155Z,16.80
2022-10-15T03:14:19.944Z,16.90
2022-10-15T03:16:46.832Z,16.80
2022-10-15T03:19:13.719Z,17.00
2022-10-15T03:21:40.558Z,17.50
2022-10-15T03:24:07.689Z,16.90
2022-10-15T03:26:34.621Z,16.90
2022-10-15T03:29:01.779Z,16.90
2022-10-15T03:31:28.643Z,16.90
2022-10-15T03:33:55.518Z,16.90
2022-10-15T03:36:22.401Z,17.20
2022-10-15T03:38:49.312Z,16.90
2022-10-15T03:41:16.232Z,16.90
2022-10-15T03:43:43.261Z,17.40
2022-10-15T03:46:10.375Z,16.90
2022-10-15T03:48:38.258Z,17.50
2022-10-15T03:51:05.517Z,17.50
2022-10-15T03:53:32.519Z,16.90
2022-10-15T03:56:07.030Z,16.90
2022-10-15T03:58:34.079Z,16.90
2022-10-15T04:01:00.992Z,17.10
2022-10-15T04:03:27.921Z,17.40
2022-10-15T04:05:59.839Z,16.80
2022-10-15T04:08:29.703Z,16.30
2022-10-15T04:10:56.831Z,16.90
2022-10-15T04:13:25.521Z,17.40
2022-10-15T04:15:53.758Z,17.40
2022-10-15T04:18:22.000Z,16.90
2022-10-15T04:20:49.776Z,17.20
2022-10-15T04:23:17.924Z,17.30
2022-10-15T04:25:46.197Z,17.50
2022-10-15T04:28:12.942Z,16.80
2022-10-15T04:30:39.827Z,16.80
2022-10-15T04:33:06.608Z,16.80
2022-10-15T04:35:35.054Z,16.80
2022-10-15T04:38:02.526Z,16.80
2022-10-15T04:40:29.441Z,16.80
2022-10-15T04:42:56.275Z,16.80
2022-10-15T04:47:50.789Z,16.80
2022-10-15T04:50:17.756Z,17.40
2022-10-15T04:52:44.744Z,16.80
2022-10-15T04:55:11.623Z,16.80
2022-10-15T04:57:38.423Z,16.80
2022-10-15T05:00:06.538Z,16.80
2022-10-15T05:02:33.425Z,16.80
2022-10-15T05:05:00.865Z,16.90
2022-10-15T05:07:27.635Z,17.30
2022-10-15T05:09:55.157Z,16.90
2022-10-15T05:12:21.971Z,16.90
2022-10-15T05:14:48.720Z,16.90
2022-10-15T05:17:15.653Z,16.90
2022-10-15T05:19:42.349Z,16.90
2022-10-15T05:22:09.168Z,16.90
2022-10-15T05:24:36.021Z,17.50
2022-10-15T05:27:05.901Z,17.40
2022-10-15T05:29:32.795Z,16.90
2022-10-15T05:31:59.580Z,16.80
2022-10-15T05:34:30.357Z,17.00
2022-10-15T05:36:57.527Z,16.80
2022-10-15T05:39:24.371Z,16.80
2022-10-15T05:41:51.194Z,16.80
2022-10-15T05:44:17.911Z,16.80
2022-10-15T05:46:44.762Z,16.70
2022-10-15T05:49:11.567Z,16.70
2022-10-15T05:51:38.453Z,16.70
2022-10-15T05:54:05.332Z,16.40
2022-10-15T05:56:32.351Z,17.30
2022-10-15T05:58:59.176Z,17.10
2022-10-15T06:01:26.401Z,16.50
2022-10-15T06:03:53.373Z,16.60
2022-10-15T06:06:26.628Z,16.80
2022-10-15T06:08:57.866Z,16.70
2022-10-15T06:11:26.761Z,16.50
2022-10-15T06:13:55.086Z,16.00
2022-10-15T06:16:24.035Z,17.10
2022-10-15T06:18:53.737Z,16.90
2022-10-15T06:21:21.264Z,16.50
2022-10-15T06:23:48.087Z,16.50
2022-10-15T06:26:14.994Z,17.00
2022-10-15T06:28:41.914Z,16.50
2022-10-15T06:31:09.001Z,16.50
2022-10-15T06:33:36.904Z,16.60
2022-10-15T06:36:14.002Z,17.00
2022-10-15T06:38:44.219Z,16.80
2022-10-15T06:41:11.983Z,16.70
2022-10-15T06:43:56.442Z,17.30
2022-10-15T06:46:23.648Z,16.80
2022-10-15T06:48:51.877Z,17.20
2022-10-15T06:51:19.058Z,16.80
2022-10-15T06:53:48.897Z,16.10
2022-10-15T06:56:20.749Z,17.30
2022-10-15T06:58:47.837Z,16.90
2022-10-15T07:01:18.709Z,17.30
2022-10-15T07:03:50.039Z,16.60
2022-10-15T07:10:12.803Z,16.80
2022-10-15T07:16:22.107Z,17.20
2022-10-15T07:19:47.297Z,17.20
2022-10-15T07:22:48.719Z,17.00
2022-10-15T07:27:02.640Z,17.30
2022-10-15T07:33:18.634Z,17.40
2022-10-15T07:35:41.669Z,17.00
2022-10-15T07:38:47.000Z,17.40
2022-10-15T07:45:01.130Z,17.40
2022-10-15T07:47:29.398Z,17.80
2022-10-15T07:50:09.171Z,16.80
2022-10-15T07:52:40.698Z,17.50
2022-10-15T07:55:16.363Z,18.00
2022-10-15T07:58:12.133Z,17.50
2022-10-15T08:00:40.713Z,17.80
2022-10-15T08:03:09.577Z,18.20
2022-10-15T08:05:39.125Z,17.60
2022-10-15T08:08:06.457Z,17.80
2022-10-15T08:10:33.322Z,17.40
2022-10-15T08:13:00.097Z,17.70
2022-10-15T08:15:26.821Z,17.70
2022-10-15T08:17:53.647Z,17.80
2022-10-15T08:20:20.401Z,17.80
2022-10-15T08:22:47.110Z,17.90
2022-10-15T08:25:13.960Z,17.90
2022-10-15T08:27:40.691Z,18.00
2022-10-15T08:30:08.334Z,18.10
2022-10-15T08:32:35.037Z,18.10
2022-10-15T08:35:01.808Z,18.20
2022-10-15T08:37:28.595Z,18.20
2022-10-15T08:39:55.357Z,18.30
2022-10-15T08:42:38.431Z,18.40
2022-10-15T08:45:19.446Z,18.50
2022-10-15T08:48:23.801Z,18.60
2022-10-15T08:51:14.790Z,18.70
2022-10-15T08:53:49.378Z,18.80
2022-10-15T08:56:24.004Z,19.00
2022-10-15T08:59:01.783Z,19.10
2022-10-15T09:01:55.438Z,19.20
2022-10-15T09:04:42.055Z,19.30
2022-10-15T09:07:31.102Z,19.40
2022-10-15T09:10:23.400Z,19.60
2022-10-15T09:13:10.386Z,19.60
2022-10-15T09:15:51.858Z,19.70
2022-10-15T09:18:26.472Z,19.80
2022-10-15T09:20:54.387Z,20.00
2022-10-15T09:23:27.746Z,20.00
2022-10-15T09:26:16.023Z,20.10
2022-10-15T09:28:52.489Z,20.20
2022-10-15T09:31:26.993Z,20.30
2022-10-15T09:34:06.450Z,20.50
2022-10-15T09:36:41.319Z,20.70
2022-10-15T09:39:50.265Z,20.90
2022-10-15T09:42:30.766Z,21.20
2022-10-15T09:45:10.243Z,21.60
2022-10-15T09:47:41.700Z,22.10
2022-10-15T09:50:13.837Z,22.70
2022-10-15T09:53:16.267Z,23.30
2022-10-15T09:55:56.480Z,24.00
2022-10-15T09:58:38.545Z,24.60
2022-10-15T10:01:16.439Z,25.00
2022-10-15T10:03:43.173Z,25.30
2022-10-15T10:06:13.748Z,25.50
2022-10-15T10:08:49.875Z,25.60
2022-10-15T10:11:17.160Z,25.70
2022-10-15T10:14:03.704Z,25.90
2022-10-15T10:16:33.255Z,25.90
2022-10-15T10:19:12.510Z,26.00
2022-10-15T10:21:42.742Z,26.00
2022-10-15T10:24:30.674Z,26.00
2022-10-15T10:27:02.367Z,26.00
2022-10-15T10:29:35.422Z,25.90
2022-10-15T10:32:33.932Z,25.90
2022-10-15T10:35:03.926Z,25.90
2022-10-15T10:37:44.239Z,25.90
2022-10-15T10:40:32.000Z,26.00
2022-10-15T10:43:16.918Z,25.90
2022-10-15T10:45:59.550Z,25.90
2022-10-15T10:48:45.886Z,25.90
2022-10-15T10:51:18.429Z,26.00
2022-10-15T10:54:03.384Z,26.10
2022-10-15T10:56:40.527Z,26.10
2022-10-15T10:59:26.919Z,26.20
2022-10-15T11:04:40.112Z,26.40
2022-10-15T11:07:24.725Z,26.40
2022-10-15T11:10:29.029Z,26.50
2022-10-15T11:13:13.181Z,26.70
2022-10-15T11:15:49.711Z,26.80
2022-10-15T11:19:18.754Z,27.00
2022-10-15T11:25:21.903Z,27.20
2022-10-15T11:28:29.646Z,27.20
2022-10-15T11:31:40.484Z,27.30
2022-10-15T11:34:50.415Z,27.40
2022-10-15T11:37:39.047Z,27.40
2022-10-15T11:40:41.071Z,27.50
2022-10-15T11:43:34.799Z,27.50
2022-10-15T11:46:46.937Z,27.50
2022-10-15T11:50:05.628Z,27.50
2022-10-15T11:53:00.110Z,27.40
2022-10-15T11:55:53.461Z,27.30
2022-10-15T11:58:37.622Z,27.10
2022-10-15T12:01:18.602Z,26.90
2022-10-15T12:04:02.557Z,26.80
2022-10-15T12:06:37.379Z,26.60
2022-10-15T12:09:06.530Z,26.50
2022-10-15T12:12:20.667Z,26.50
2022-10-15T12:15:01.927Z,26.40
2022-10-15T12:17:53.387Z,26.40
2022-10-15T12:20:23.122Z,26.30
2022-10-15T12:22:52.777Z,26.30
2022-10-15T12:25:34.627Z,26.20
2022-10-15T12:28:27.196Z,26.10
2022-10-15T12:31:06.199Z,26.10
2022-10-15T12:33:48.951Z,25.90
2022-10-15T12:36:30.241Z,25.90
2022-10-15T12:39:00.637Z,25.90
2022-10-15T12:41:46.729Z,25.90
2022-10-15T12:44:24.167Z,25.90
2022-10-15T12:46:51.554Z,25.80
2022-10-15T12:49:27.695Z,25.60
2022-10-15T12:51:56.645Z,25.60
2022-10-15T12:54:45.550Z,25.50
2022-10-15T12:57:30.952Z,25.50
2022-10-15T13:00:00.261Z,25.40
2022-10-15T13:05:26.100Z,25.20
2022-10-15T13:07:55.843Z,25.20
2022-10-15T13:10:49.918Z,25.10
2022-10-15T13:13:23.835Z,25.10
2022-10-15T13:15:58.437Z,25.00
2022-10-15T13:18:28.011Z,24.80
2022-10-15T13:20:56.496Z,24.90
2022-10-15T13:23:32.796Z,24.80
2022-10-15T13:26:29.901Z,24.70
2022-10-15T13:28:59.573Z,24.70
2022-10-15T13:31:35.101Z,24.60
2022-10-15T13:34:21.184Z,24.60
2022-10-15T13:36:48.804Z,24.50
2022-10-15T13:39:39.354Z,24.50
2022-10-15T13:42:26.396Z,24.40
2022-10-15T13:45:04.708Z,24.30
2022-10-15T13:47:36.069Z,24.30
2022-10-15T13:50:35.135Z,24.30
2022-10-15T13:53:26.809Z,24.30
2022-10-15T13:55:57.321Z,24.20
2022-10-15T13:58:34.607Z,24.10
2022-10-15T14:01:20.374Z,24.10
2022-10-15T14:04:22.301Z,24.00
2022-10-15T14:07:02.726Z,24.00
2022-10-15T14:09:37.867Z,24.00
2022-10-15T14:12:11.197Z,24.00
2022-10-15T14:14:41.540Z,23.90
2022-10-15T14:17:25.033Z,23.90
2022-10-15T14:20:26.485Z,23.90
2022-10-15T14:22:52.989Z,23.90
2022-10-15T14:25:25.968Z,23.90
2022-10-15T14:27:54.210Z,23.80
2022-10-15T14:30:36.602Z,23.80
2022-10-15T14:33:04.009Z,23.70
2022-10-15T14:35:37.114Z,23.50
2022-10-15T14:38:16.608Z,23.10
2022-10-15T14:41:07.605Z,23.10
2022-10-15T14:43:36.931Z,22.80
2022-10-15T14:46:16.934Z,22.60
2022-10-15T14:48:45.142Z,22.30
2022-10-15T14:51:24.939Z,22.20
2022-10-15T14:53:53.653Z,22.10
2022-10-15T14:56:30.281Z,22.20
2022-10-15T14:58:58.537Z,21.70
2022-10-15T15:01:27.493Z,21.70
2022-10-15T15:03:56.941Z,21.50
2022-10-15T15:06:24.079Z,21.40
2022-10-15T15:08:50.860Z,21.30
2022-10-15T15:11:25.243Z,21.20
2022-10-15T15:13:53.747Z,21.10
2022-10-15T15:16:20.591Z,21.00
2022-10-15T15:18:49.256Z,21.00
2022-10-15T15:21:22.275Z,20.90
2022-10-15T15:23:49.814Z,20.80
2022-10-15T15:26:16.566Z,20.70
2022-10-15T15:28:43.269Z,20.80
2022-10-15T15:31:17.445Z,20.60
2022-10-15T15:33:44.592Z,20.50
2022-10-15T15:36:18.902Z,20.50
2022-10-15T15:38:49.753Z,20.40
2022-10-15T15:41:20.015Z,20.30
2022-10-15T15:43:47.159Z,20.20
2022-10-15T15:46:14.056Z,20.10
2022-10-15T15:48:41.135Z,20.00
2022-10-15T15:51:30.178Z,19.90
2022-10-15T15:53:58.362Z,19.70
2022-10-15T15:56:25.794Z,19.70
2022-10-15T15:58:52.590Z,19.60
2022-10-15T16:01:20.028Z,19.50
2022-10-15T16:03:46.903Z,19.40
2022-10-15T16:06:13.941Z,19.30
2022-10-15T16:08:40.649Z,19.20
2022-10-15T16:11:07.425Z,19.20
2022-10-15T16:13:34.927Z,19.10
2022-10-15T16:16:01.748Z,19.10
2022-10-15T16:18:28.568Z,19.00
2022-10-15T16:20:55.486Z,19.00
2022-10-15T16:23:22.524Z,18.90
2022-10-15T16:25:49.305Z,18.90
2022-10-15T16:28:15.993Z,18.90
2022-10-15T16:30:42.743Z,18.80
2022-10-15T16:33:09.548Z,18.80
2022-10-15T16:35:36.446Z,18.70
2022-10-15T16:38:03.238Z,18.70
2022-10-15T16:40:30.009Z,18.70
2022-10-15T16:42:56.798Z,18.70
2022-10-15T16:45:24.029Z,18.60
2022-10-15T16:47:50.821Z,18.60
2022-10-15T16:50:17.570Z,18.70
2022-10-15T16:52:44.289Z,18.50
2022-10-15T16:55:11.046Z,18.40
2022-10-15T16:57:37.819Z,18.50
2022-10-15T17:00:05.344Z,18.50
2022-10-15T17:02:32.102Z,18.50
2022-10-15T17:04:58.817Z,18.50
2022-10-15T17:07:26.211Z,18.40
2022-10-15T17:09:53.172Z,18.40
2022-10-15T17:12:19.899Z,18.40
2022-10-15T17:14:53.754Z,18.40
2022-10-15T17:17:20.585Z,18.40
2022-10-15T17:19:47.411Z,18.50
2022-10-15T17:22:14.135Z,18.30
2022-10-15T17:24:40.914Z,18.40
2022-10-15T17:27:07.626Z,18.40
2022-10-15T17:29:34.363Z,18.40
2022-10-15T17:32:02.833Z,18.30
2022-10-15T17:34:29.643Z,18.30
2022-10-15T17:36:56.876Z,18.60
2022-10-15T17:39:24.008Z,18.70
2022-10-15T17:41:51.941Z,18.30
2022-10-15T17:44:19.333Z,18.30
2022-10-15T17:46:46.086Z,18.20
2022-10-15T17:49:17.989Z,18.20
2022-10-15T17:51:46.474Z,18.20
2022-10-15T17:54:13.911Z,18.10
2022-10-15T17:56:40.689Z,18.10
2022-10-15T17:59:11.277Z,18.10
2022-10-15T18:01:58.827Z,18.10
2022-10-15T18:04:28.333Z,18.00
2022-10-15T18:06:55.053Z,18.00
2022-10-15T18:09:21.762Z,17.90
2022-10-15T18:11:49.025Z,17.90
2022-10-15T18:14:15.926Z,17.90
2022-10-15T18:16:43.282Z,17.90
2022-10-15T18:19:10.460Z,17.80
2022-10-15T18:21:39.959Z,17.80
2022-10-15T18:24:06.740Z,17.80
2022-10-15T18:26:33.568Z,17.70
2022-10-15T18:29:00.370Z,17.80
2022-10-15T18:31:27.216Z,17.70
2022-10-15T18:33:55.957Z,17.60
2022-10-15T18:36:31.719Z,17.60
2022-10-15T18:38:59.839Z,17.50
2022-10-15T18:41:33.772Z,17.40
2022-10-15T18:44:08.665Z,17.50
2022-10-15T18:46:35.722Z,17.40
2022-10-15T18:49:02.938Z,17.40
2022-10-15T18:51:30.962Z,17.30
2022-10-15T18:54:00.070Z,17.30
2022-10-15T18:56:27.819Z,17.30
2022-10-15T18:58:55.079Z,17.20
2022-10-15T19:01:37.323Z,17.20
2022-10-15T19:04:13.930Z,17.10
2022-10-15T19:06:47.600Z,17.20
2022-10-15T19:09:18.873Z,17.10
2022-10-15T19:11:48.658Z,17.30
2022-10-15T19:14:16.170Z,17.30
2022-10-15T19:16:45.332Z,17.20
2022-10-15T19:19:16.486Z,17.00
2022-10-15T19:21:45.236Z,16.90
2022-10-15T19:24:13.126Z,16.90
2022-10-15T19:26:40.210Z,17.20
2022-10-15T19:29:07.061Z,16.90
2022-10-15T19:31:38.394Z,17.00
2022-10-15T19:34:06.452Z,17.20
2022-10-15T19:36:37.757Z,17.00
2022-10-15T19:39:10.842Z,16.80
2022-10-15T19:41:42.565Z,16.70
2022-10-15T19:44:13.230Z,16.70
2022-10-15T19:46:40.829Z,16.70
2022-10-15T19:49:11.231Z,16.70
2022-10-15T19:51:38.576Z,16.80
2022-10-15T19:54:05.498Z,16.70
2022-10-15T19:56:32.964Z,16.60
2022-10-15T19:59:03.361Z,16.70
2022-10-15T20:01:30.733Z,16.60
2022-10-15T20:04:04.810Z,16.60
2022-10-15T20:06:35.601Z,16.60
2022-10-15T20:09:02.498Z,16.50
2022-10-15T20:11:29.521Z,16.50
2022-10-15T20:13:57.803Z,16.50
2022-10-15T20:16:25.549Z,16.50
2022-10-15T20:18:56.175Z,16.50
2022-10-15T20:21:23.425Z,16.50
2022-10-15T20:23:50.300Z,16.50
2022-10-15T20:26:17.170Z,16.40
2022-10-15T20:28:46.694Z,16.40
2022-10-15T20:31:17.109Z,16.40
2022-10-15T20:33:44.928Z,16.40
2022-10-15T20:36:20.047Z,16.30
2022-10-15T20:38:50.476Z,16.30
2022-10-15T20:41:18.035Z,16.30
2022-10-15T20:43:47.148Z,16.30
2022-10-15T20:46:28.939Z,16.30
2022-10-15T20:49:03.369Z,16.30
2022-10-15T20:51:33.065Z,16.30
2022-10-15T20:54:00.293Z,16.30
2022-10-15T20:56:27.317Z,16.30
2022-10-15T20:58:54.395Z,16.20
2022-10-15T21:01:21.292Z,16.30
2022-10-15T21:03:48.060Z,16.20
2022-10-15T21:06:14.791Z,16.20
2022-10-15T21:08:41.530Z,16.20
2022-10-15T21:11:09.357Z,16.20
2022-10-15T21:13:36.342Z,16.20
2022-10-15T21:16:06.041Z,16.20
2022-10-15T21:18:37.499Z,16.20
2022-10-15T21:21:06.485Z,16.20
2022-10-15T21:23:34.172Z,16.10
2022-10-15T21:26:13.685Z,16.10
2022-10-15T21:28:41.282Z,16.10
2022-10-15T21:31:16.996Z,16.00
2022-10-15T21:33:44.881Z,16.10
2022-10-15T21:36:21.621Z,16.00
2022-10-15T21:38:59.330Z,16.00
2022-10-15T21:41:29.044Z,16.00
2022-10-15T21:43:56.433Z,16.00
2022-10-15T21:46:23.862Z,15.90
2022-10-15T21:48:53.156Z,15.90
2022-10-15T21:51:29.362Z,15.90
2022-10-15T21:53:58.225Z,15.90
2022-10-15T21:56:25.306Z,15.90
2022-10-15T21:58:53.322Z,15.90
2022-10-15T22:01:23.607Z,15.90
2022-10-15T22:03:52.899Z,15.90
2022-10-15T22:06:20.885Z,15.90
2022-10-15T22:08:48.062Z,15.90
2022-10-15T22:11:21.487Z,15.90
2022-10-15T22:13:52.363Z,15.90
2022-10-15T22:16:20.906Z,15.90
2022-10-15T22:18:47.831Z,15.90
2022-10-15T22:21:28.277Z,15.90
2022-10-15T22:24:00.363Z,15.80
2022-10-15T22:26:32.658Z,15.90
2022-10-15T22:29:02.297Z,15.90
2022-10-15T22:31:30.103Z,15.90
2022-10-15T22:33:58.423Z,15.90
2022-10-15T22:36:28.457Z,15.90
2022-10-15T22:39:01.726Z,15.90
2022-10-15T22:41:34.593Z,15.90
2022-10-15T22:44:01.693Z,15.90
2022-10-15T22:46:31.659Z,15.90
2022-10-15T22:48:58.379Z,15.80
2022-10-15T22:51:25.279Z,16.00
2022-10-15T22:53:55.993Z,15.90
2022-10-15T22:56:24.328Z,15.90
2022-10-15T22:58:51.324Z,15.90
2022-10-15T23:01:25.364Z,15.90
2022-10-15T23:03:56.476Z,15.90
2022-10-15T23:06:24.645Z,15.90
2022-10-15T23:08:51.669Z,15.90
2022-10-15T23:11:22.786Z,15.90
2022-10-15T23:13:56.101Z,15.90
2022-10-15T23:16:33.226Z,15.90
2022-10-15T23:19:07.072Z,15.90
2022-10-15T23:21:47.836Z,15.90
2022-10-15T23:24:16.524Z,15.90
2022-10-15T23:26:43.577Z,15.90
2022-10-15T23:29:17.993Z,15.90
2022-10-15T23:31:46.089Z,16.00
2022-10-15T23:34:23.475Z,16.00
2022-10-15T23:36:51.522Z,16.00
2022-10-15T23:39:22.414Z,16.00
2022-10-15T23:41:49.874Z,16.00
2022-10-15T23:44:16.884Z,16.00
2022-10-15T23:46:43.985Z,16.00
2022-10-15T23:49:11.167Z,16.00
2022-10-15T23:51:38.361Z,16.00
2022-10-15T23:54:15.948Z,16.00
2022-10-15T23:56:43.089Z,16.00
2022-10-15T23:59:10.533Z,16.00
